createdAt,value
2023-05-01T00:02:34.436Z,56.93
2023-05-01T00:07:42.733Z,64.83
2023-05-01T00:12:48.204Z,56.70
2023-05-01T00:17:53.782Z,71.23
2023-05-01T00:23:02.659Z,73.17
2023-05-01T00:28:08.480Z,72.17
2023-05-01T00:33:13.633Z,55.00
2023-05-01T00:38:24.442Z,54.53
2023-05-01T00:43:29.898Z,56.60
2023-05-01T00:48:35.103Z,64.30
2023-05-01T00:53:46.260Z,61.17
2023-05-01T00:58:55.347Z,62.80
2023-05-01T01:04:01.650Z,63.97
2023-05-01T01:09:26.251Z,65.47
2023-05-01T01:14:36.931Z,71.80
2023-05-01T01:20:17.778Z,77.20
2023-05-01T01:26:01.385Z,87.93
2023-05-01T01:31:23.651Z,89.40
2023-05-01T01:36:40.352Z,85.80
2023-05-01T01:41:53.170Z,82.83
2023-05-01T01:47:02.259Z,85.70
2023-05-01T01:52:14.410Z,80.23
2023-05-01T01:57:21.792Z,79.60
2023-05-01T02:02:29.576Z,77.30
2023-05-01T02:07:38.806Z,73.20
2023-05-01T02:12:46.295Z,71.83
2023-05-01T02:17:54.332Z,73.23
2023-05-01T02:23:03.375Z,71.10
2023-05-01T02:28:16.329Z,70.27
2023-05-01T02:33:21.656Z,69.43
2023-05-01T02:38:29.822Z,67.13
2023-05-01T02:43:36.949Z,72.03
2023-05-01T02:48:45.280Z,67.33
2023-05-01T02:53:53.767Z,67.30
2023-05-01T02:59:00.907Z,66.07
2023-05-01T03:04:06.059Z,66.83
2023-05-01T03:09:14.453Z,67.10
2023-05-01T03:14:19.928Z,59.07
2023-05-01T03:19:25.661Z,65.20
2023-05-01T03:24:33.859Z,71.07
2023-05-01T03:29:39.870Z,75.67
2023-05-01T03:34:45.059Z,74.50
2023-05-01T03:39:56.608Z,75.83
2023-05-01T03:45:21.395Z,70.37
2023-05-01T03:50:26.822Z,67.53
2023-05-01T03:55:37.285Z,70.40
2023-05-01T04:00:43.238Z,67.57
2023-05-01T04:05:49.238Z,60.80
2023-05-01T04:10:59.465Z,58.50
2023-05-01T04:16:05.105Z,56.53
2023-05-01T04:21:11.098Z,52.07
2023-05-01T04:26:22.302Z,52.20
2023-05-01T04:31:28.109Z,49.77
2023-05-01T04:36:35.591Z,52.17
2023-05-01T04:41:44.057Z,49.80
2023-05-01T04:46:49.741Z,45.07
2023-05-01T04:51:57.171Z,37.30
2023-05-01T04:57:09.003Z,37.27
2023-05-01T05:02:14.224Z,33.70
2023-05-01T05:07:21.861Z,31.30
2023-05-01T05:12:52.679Z,32.83
2023-05-01T05:17:58.112Z,31.43
2023-05-01T05:23:04.882Z,27.53
2023-05-01T05:28:12.785Z,23.57
2023-05-01T05:33:18.550Z,20.30
2023-05-01T05:38:25.857Z,19.50
2023-05-01T05:43:37.545Z,15.57
2023-05-01T05:48:46.240Z,11.70
2023-05-01T05:53:52.578Z,10.43
2023-05-01T05:59:03.760Z,11.27
2023-05-01T06:04:09.760Z,10.03
2023-05-01T06:09:19.198Z,9.60
2023-05-01T06:14:26.974Z,8.00
2023-05-01T06:19:43.187Z,7.73
2023-05-01T06:24:49.774Z,8.03
2023-05-01T06:30:01.678Z,7.87
2023-05-01T06:35:09.551Z,7.17
2023-05-01T06:40:16.982Z,6.93
2023-05-01T06:45:27.823Z,6.63
2023-05-01T06:50:33.609Z,6.27
2023-05-01T06:55:40.127Z,6.13
2023-05-01T07:00:47.825Z,5.73
2023-05-01T07:05:54.138Z,6.27
2023-05-01T07:11:00.584Z,5.60
2023-05-01T07:16:09.496Z,5.40
2023-05-01T07:21:14.758Z,5.63
2023-05-01T07:26:20.238Z,5.80
2023-05-01T07:31:28.255Z,5.40
2023-05-01T07:36:36.829Z,4.83
2023-05-01T07:41:41.832Z,5.33
2023-05-01T07:46:49.743Z,5.17
2023-05-01T07:51:58.368Z,4.97
2023-05-01T07:57:05.778Z,4.80
2023-05-01T08:02:18.978Z,4.23
2023-05-01T08:07:24.964Z,4.97
2023-05-01T08:12:34.214Z,4.43
2023-05-01T08:17:42.286Z,4.13
2023-05-01T08:22:50.087Z,4.47
2023-05-01T08:27:55.412Z,4.20
2023-05-01T08:33:03.714Z,4.80
2023-05-01T08:38:08.874Z,4.53
2023-05-01T08:43:14.341Z,4.40
2023-05-01T08:48:23.908Z,4.10
2023-05-01T08:53:32.040Z,4.43
2023-05-01T08:58:38.863Z,4.17
2023-05-01T09:03:47.432Z,4.07
2023-05-01T09:08:52.636Z,4.60
2023-05-01T09:14:00.578Z,3.93
2023-05-01T09:19:08.493Z,4.23
2023-05-01T09:24:13.858Z,3.80
2023-05-01T09:29:40.848Z,3.70
2023-05-01T09:34:50.342Z,4.37
2023-05-01T09:40:06.120Z,4.10
2023-05-01T09:45:17.185Z,4.20
2023-05-01T09:50:38.785Z,4.10
2023-05-01T09:55:43.869Z,4.30
2023-05-01T10:00:52.972Z,4.47
2023-05-01T10:06:02.137Z,4.63
2023-05-01T10:11:08.475Z,4.53
2023-05-01T10:16:32.007Z,4.63
2023-05-01T10:21:39.893Z,4.53
2023-05-01T10:26:46.252Z,4.87
2023-05-01T10:31:52.260Z,4.10
2023-05-01T10:37:06.395Z,4.23
2023-05-01T10:42:14.582Z,5.17
2023-05-01T10:47:50.594Z,4.07
2023-05-01T10:53:22.619Z,4.20
2023-05-01T10:59:04.943Z,3.80
2023-05-01T11:04:30.770Z,3.20
2023-05-01T11:09:44.480Z,2.93
2023-05-01T11:15:05.984Z,3.37
2023-05-01T11:20:12.758Z,3.37
2023-05-01T11:25:25.063Z,4.10
2023-05-01T11:30:39.836Z,3.57
2023-05-01T11:35:47.680Z,3.40
2023-05-01T11:41:04.051Z,3.57
2023-05-01T11:46:09.611Z,3.60
2023-05-01T11:51:16.253Z,3.73
2023-05-01T11:56:27.552Z,3.17
2023-05-01T12:01:41.154Z,2.83
2023-05-01T12:06:49.157Z,2.80
2023-05-01T12:11:58.162Z,2.70
2023-05-01T12:17:04.488Z,2.70
2023-05-01T12:22:09.882Z,1.97
2023-05-01T12:27:21.262Z,2.47
2023-05-01T12:32:35.716Z,2.50
2023-05-01T12:37:41.724Z,2.53
2023-05-01T12:42:59.124Z,2.80
2023-05-01T12:48:04.308Z,2.20
2023-05-01T12:53:09.966Z,2.20
2023-05-01T12:58:18.506Z,2.97
2023-05-01T13:03:28.452Z,2.40
2023-05-01T13:08:35.159Z,2.13
2023-05-01T13:13:43.641Z,1.53
2023-05-01T13:18:50.825Z,1.70
2023-05-01T13:23:59.134Z,2.10
2023-05-01T13:29:08.346Z,2.00
2023-05-01T13:34:13.639Z,1.80
2023-05-01T13:39:23.083Z,1.97
2023-05-01T13:44:33.063Z,2.07
2023-05-01T13:49:40.653Z,1.77
2023-05-01T13:54:47.257Z,1.50
2023-05-01T13:59:55.469Z,1.83
2023-05-01T14:05:01.146Z,2.20
2023-05-01T14:10:07.416Z,1.67
2023-05-01T14:15:17.357Z,1.97
2023-05-01T14:20:22.942Z,1.50
2023-05-01T14:25:30.163Z,1.90
2023-05-01T14:30:40.170Z,1.80
2023-05-01T14:35:52.878Z,1.90
2023-05-01T14:41:01.219Z,1.60
2023-05-01T14:46:09.632Z,1.97
2023-05-01T14:51:15.699Z,1.80
2023-05-01T14:56:21.153Z,1.83
2023-05-01T15:01:31.633Z,1.67
2023-05-01T15:06:36.830Z,1.70
2023-05-01T15:11:42.103Z,2.10
2023-05-01T15:16:49.862Z,1.90
2023-05-01T15:21:55.090Z,1.87
2023-05-01T15:27:00.199Z,2.33
2023-05-01T15:32:12.529Z,2.17
2023-05-01T15:37:20.776Z,1.90
2023-05-01T15:42:25.845Z,2.03
2023-05-01T15:47:34.743Z,2.37
2023-05-01T15:52:40.127Z,2.40
2023-05-01T15:57:49.976Z,2.33
2023-05-01T16:02:57.751Z,2.93
2023-05-01T16:08:05.471Z,1.90
2023-05-01T16:13:10.595Z,2.33
2023-05-01T16:18:23.302Z,2.73
2023-05-01T16:23:29.162Z,2.63
2023-05-01T16:28:36.791Z,2.80
2023-05-01T16:33:44.553Z,2.30
2023-05-01T16:38:50.220Z,2.20
2023-05-01T16:43:55.487Z,2.60
2023-05-01T16:49:03.457Z,2.60
2023-05-01T16:54:08.469Z,2.50
2023-05-01T16:59:15.876Z,2.87
2023-05-01T17:04:23.682Z,2.57
2023-05-01T17:09:30.397Z,2.67
2023-05-01T17:14:37.804Z,2.50
2023-05-01T17:19:48.541Z,2.97
2023-05-01T17:24:53.593Z,2.83
2023-05-01T17:30:00.359Z,3.20
2023-05-01T17:35:15.856Z,3.10
2023-05-01T17:40:21.516Z,3.33
2023-05-01T17:45:26.776Z,3.57
2023-05-01T17:50:35.796Z,3.60
2023-05-01T17:55:43.057Z,3.73
2023-05-01T18:00:48.607Z,3.30
2023-05-01T18:05:57.081Z,2.63
2023-05-01T18:11:02.315Z,2.63
2023-05-01T18:16:09.110Z,2.73
2023-05-01T18:21:17.129Z,3.20
2023-05-01T18:26:22.747Z,3.13
2023-05-01T18:31:28.016Z,2.93
2023-05-01T18:36:35.845Z,3.60
2023-05-01T18:41:45.742Z,4.50
2023-05-01T18:46:51.146Z,4.10
2023-05-01T18:51:59.188Z,4.53
2023-05-01T18:57:04.346Z,4.73
2023-05-01T19:02:09.819Z,4.60
2023-05-01T19:07:18.330Z,5.30
2023-05-01T19:12:23.932Z,6.30
2023-05-01T19:17:29.251Z,6.67
2023-05-01T19:22:39.279Z,6.63
2023-05-01T19:27:45.525Z,8.43
2023-05-01T19:32:52.741Z,9.93
2023-05-01T19:38:02.078Z,9.07
2023-05-01T19:43:07.547Z,13.90
2023-05-01T19:48:13.012Z,9.90
2023-05-01T19:53:21.258Z,15.87
2023-05-01T19:58:27.008Z,13.33
2023-05-01T20:03:35.783Z,12.53
2023-05-01T20:08:44.611Z,12.17
2023-05-01T20:13:49.748Z,9.57
2023-05-01T20:18:55.005Z,10.00
2023-05-01T20:24:03.179Z,5.67
2023-05-01T20:29:09.587Z,5.17
2023-05-01T20:34:14.727Z,4.33
2023-05-01T20:39:23.046Z,4.33
2023-05-01T20:44:30.384Z,4.33
2023-05-01T20:49:36.005Z,4.83
2023-05-01T20:54:45.034Z,4.30
2023-05-01T20:59:51.162Z,4.67
2023-05-01T21:04:57.773Z,4.73
2023-05-01T21:10:10.796Z,5.03
2023-05-01T21:15:15.952Z,4.97
2023-05-01T21:20:32.277Z,5.33
2023-05-01T21:25:42.091Z,4.77
2023-05-01T21:30:47.452Z,5.27
2023-05-01T21:35:52.690Z,4.97
2023-05-01T21:41:00.817Z,4.83
2023-05-01T21:46:06.221Z,4.80
2023-05-01T21:51:11.675Z,5.40
2023-05-01T21:56:21.289Z,5.50
2023-05-01T22:01:26.920Z,5.00
2023-05-01T22:06:33.396Z,5.33
2023-05-01T22:11:42.408Z,5.27
2023-05-01T22:16:49.532Z,5.30
2023-05-01T22:21:54.808Z,5.50
2023-05-01T22:27:02.821Z,4.90
2023-05-01T22:32:08.679Z,5.10
2023-05-01T22:37:14.333Z,5.80
2023-05-01T22:42:22.665Z,5.57
2023-05-01T22:47:30.318Z,6.33
2023-05-01T22:52:35.666Z,6.80
2023-05-01T22:57:44.509Z,5.77
2023-05-01T23:02:49.818Z,6.43
2023-05-01T23:07:56.524Z,5.93
2023-05-01T23:13:07.227Z,6.17
2023-05-01T23:18:15.928Z,6.33
2023-05-01T23:23:23.318Z,6.57
2023-05-01T23:28:32.324Z,6.03
2023-05-01T23:33:39.635Z,7.17
2023-05-01T23:38:44.989Z,5.93
2023-05-01T23:43:53.258Z,6.77
2023-05-01T23:48:58.996Z,6.00
2023-05-01T23:54:07.063Z,6.47
2023-05-01T23:59:15.026Z,7.33
